sensor_id;sensor_type;location;lat;lon;timestamp;P1;durP1;ratioP1;P2;durP2;ratioP2
76063;SDS011;64762;52.006;8.424;2023-01-16T00:01:38;3.17;;;0.73;;
76063;SDS011;64762;52.006;8.424;2023-01-16T00:04:03;2.72;;;0.50;;
76063;SDS011;64762;52.006;8.424;2023-01-16T00:06:29;5.50;;;1.30;;
76063;SDS011;64762;52.006;8.424;2023-01-16T00:08:54;2.67;;;0.87;;
76063;SDS011;64762;52.006;8.424;2023-01-16T00:11:19;4.33;;;1.13;;
76063;SDS011;64762;52.006;8.424;2023-01-16T00:13:45;5.80;;;0.90;;
76063;SDS011;64762;52.006;8.424;2023-01-16T00:16:10;6.73;;;1.30;;
76063;SDS011;64762;52.006;8.424;2023-01-16T00:18:35;3.20;;;0.80;;
76063;SDS011;64762;52.006;8.424;2023-01-16T00:21:01;3.17;;;0.70;;
76063;SDS011;64762;52.006;8.424;2023-01-16T00:23:26;3.80;;;0.85;;
76063;SDS011;64762;52.006;8.424;2023-01-16T00:25:52;2.97;;;0.77;;
76063;SDS011;64762;52.006;8.424;2023-01-16T00:28:17;3.40;;;0.67;;
76063;SDS011;64762;52.006;8.424;2023-01-16T00:30:42;2.10;;;0.60;;
76063;SDS011;64762;52.006;8.424;2023-01-16T00:33:07;3.47;;;0.90;;
76063;SDS011;64762;52.006;8.424;2023-01-16T00:35:33;3.72;;;1.00;;
76063;SDS011;64762;52.006;8.424;2023-01-16T00:37:58;3.55;;;0.77;;
76063;SDS011;64762;52.006;8.424;2023-01-16T00:40:24;4.33;;;1.23;;
76063;SDS011;64762;52.006;8.424;2023-01-16T00:42:49;4.15;;;1.05;;
76063;SDS011;64762;52.006;8.424;2023-01-16T00:45:15;4.70;;;1.40;;
76063;SDS011;64762;52.006;8.424;2023-01-16T00:47:40;2.87;;;1.33;;
76063;SDS011;64762;52.006;8.424;2023-01-16T00:50:06;7.80;;;2.33;;
76063;SDS011;64762;52.006;8.424;2023-01-16T00:52:31;6.07;;;1.95;;
76063;SDS011;64762;52.006;8.424;2023-01-16T00:54:57;7.60;;;2.10;;
76063;SDS011;64762;52.006;8.424;2023-01-16T00:57:22;6.13;;;2.17;;
76063;SDS011;64762;52.006;8.424;2023-01-16T00:59:47;6.63;;;2.17;;
76063;SDS011;64762;52.006;8.424;2023-01-16T01:02:13;7.00;;;1.70;;
76063;SDS011;64762;52.006;8.424;2023-01-16T01:04:38;6.13;;;1.95;;
76063;SDS011;64762;52.006;8.424;2023-01-16T01:07:04;4.75;;;1.58;;
76063;SDS011;64762;52.006;8.424;2023-01-16T01:09:29;4.50;;;1.80;;
76063;SDS011;64762;52.006;8.424;2023-01-16T01:11:57;5.27;;;2.07;;
76063;SDS011;64762;52.006;8.424;2023-01-16T01:14:23;7.03;;;1.98;;
76063;SDS011;64762;52.006;8.424;2023-01-16T01:16:49;7.40;;;2.00;;
76063;SDS011;64762;52.006;8.424;2023-01-16T01:19:14;5.23;;;1.90;;
76063;SDS011;64762;52.006;8.424;2023-01-16T01:21:39;8.00;;;2.50;;
76063;SDS011;64762;52.006;8.424;2023-01-16T01:24:05;8.07;;;2.50;;
76063;SDS011;64762;52.006;8.424;2023-01-16T01:26:30;5.28;;;1.75;;
76063;SDS011;64762;52.006;8.424;2023-01-16T01:28:55;4.70;;;1.57;;
76063;SDS011;64762;52.006;8.424;2023-01-16T01:31:21;2.73;;;1.20;;
76063;SDS011;64762;52.006;8.424;2023-01-16T01:33:46;3.87;;;1.10;;
76063;SDS011;64762;52.006;8.424;2023-01-16T01:36:11;3.13;;;1.10;;
76063;SDS011;64762;52.006;8.424;2023-01-16T01:38:37;4.77;;;1.37;;
76063;SDS011;64762;52.006;8.424;2023-01-16T01:41:02;3.57;;;1.03;;
76063;SDS011;64762;52.006;8.424;2023-01-16T01:43:38;7.82;;;1.30;;
76063;SDS011;64762;52.006;8.424;2023-01-16T01:46:10;4.43;;;1.17;;
76063;SDS011;64762;52.006;8.424;2023-01-16T01:48:40;9.82;;;1.95;;
76063;SDS011;64762;52.006;8.424;2023-01-16T01:51:10;3.90;;;0.85;;
76063;SDS011;64762;52.006;8.424;2023-01-16T01:53:44;4.75;;;1.75;;
76063;SDS011;64762;52.006;8.424;2023-01-16T01:58:47;7.13;;;1.92;;
76063;SDS011;64762;52.006;8.424;2023-01-16T02:01:15;5.28;;;1.55;;
76063;SDS011;64762;52.006;8.424;2023-01-16T02:03:51;9.03;;;2.57;;
76063;SDS011;64762;52.006;8.424;2023-01-16T02:06:22;5.05;;;1.92;;
76063;SDS011;64762;52.006;8.424;2023-01-16T02:08:51;4.20;;;1.50;;
76063;SDS011;64762;52.006;8.424;2023-01-16T02:11:23;5.13;;;1.50;;
76063;SDS011;64762;52.006;8.424;2023-01-16T02:13:55;6.38;;;1.75;;
76063;SDS011;64762;52.006;8.424;2023-01-16T02:16:22;5.25;;;1.58;;
76063;SDS011;64762;52.006;8.424;2023-01-16T02:19:08;7.30;;;1.95;;
76063;SDS011;64762;52.006;8.424;2023-01-16T02:41:21;5.25;;;1.17;;
76063;SDS011;64762;52.006;8.424;2023-01-16T02:46:58;3.53;;;1.10;;
76063;SDS011;64762;52.006;8.424;2023-01-16T02:49:38;1.58;;;0.60;;
76063;SDS011;64762;52.006;8.424;2023-01-16T02:52:13;2.03;;;0.63;;
76063;SDS011;64762;52.006;8.424;2023-01-16T02:55:01;2.40;;;0.50;;
76063;SDS011;64762;52.006;8.424;2023-01-16T02:57:33;1.77;;;0.50;;
76063;SDS011;64762;52.006;8.424;2023-01-16T03:00:03;2.35;;;0.77;;
76063;SDS011;64762;52.006;8.424;2023-01-16T03:02:30;1.83;;;0.70;;
76063;SDS011;64762;52.006;8.424;2023-01-16T03:04:55;4.00;;;1.00;;
76063;SDS011;64762;52.006;8.424;2023-01-16T03:07:27;1.83;;;0.70;;
76063;SDS011;64762;52.006;8.424;2023-01-16T03:10:29;3.45;;;0.75;;
76063;SDS011;64762;52.006;8.424;2023-01-16T03:18:34;7.20;;;1.10;;
76063;SDS011;64762;52.006;8.424;2023-01-16T03:26:14;7.43;;;2.10;;
76063;SDS011;64762;52.006;8.424;2023-01-16T03:31:30;3.95;;;1.27;;
76063;SDS011;64762;52.006;8.424;2023-01-16T03:34:05;4.38;;;1.02;;
76063;SDS011;64762;52.006;8.424;2023-01-16T03:36:50;2.00;;;0.93;;
76063;SDS011;64762;52.006;8.424;2023-01-16T03:39:21;5.80;;;0.93;;
76063;SDS011;64762;52.006;8.424;2023-01-16T03:41:49;4.18;;;0.85;;
76063;SDS011;64762;52.006;8.424;2023-01-16T03:44:20;2.60;;;0.73;;
76063;SDS011;64762;52.006;8.424;2023-01-16T03:46:50;1.52;;;0.55;;
76063;SDS011;64762;52.006;8.424;2023-01-16T03:49:19;2.90;;;0.80;;
76063;SDS011;64762;52.006;8.424;2023-01-16T03:51:54;1.98;;;0.60;;
76063;SDS011;64762;52.006;8.424;2023-01-16T03:57:13;4.53;;;0.82;;
76063;SDS011;64762;52.006;8.424;2023-01-16T03:59:40;3.08;;;0.82;;
76063;SDS011;64762;52.006;8.424;2023-01-16T04:02:27;2.88;;;0.85;;
76063;SDS011;64762;52.006;8.424;2023-01-16T04:05:17;5.05;;;0.63;;
76063;SDS011;64762;52.006;8.424;2023-01-16T04:07:58;3.17;;;0.90;;
76063;SDS011;64762;52.006;8.424;2023-01-16T04:10:33;2.58;;;1.08;;
76063;SDS011;64762;52.006;8.424;2023-01-16T04:13:01;3.05;;;0.68;;
76063;SDS011;64762;52.006;8.424;2023-01-16T04:15:29;2.70;;;0.90;;
76063;SDS011;64762;52.006;8.424;2023-01-16T04:17:56;4.13;;;1.15;;
76063;SDS011;64762;52.006;8.424;2023-01-16T04:20:22;4.25;;;1.02;;
76063;SDS011;64762;52.006;8.424;2023-01-16T04:22:48;8.00;;;1.50;;
76063;SDS011;64762;52.006;8.424;2023-01-16T04:25:14;3.90;;;1.20;;
76063;SDS011;64762;52.006;8.424;2023-01-16T04:27:39;2.53;;;0.95;;
76063;SDS011;64762;52.006;8.424;2023-01-16T04:30:05;3.83;;;1.10;;
76063;SDS011;64762;52.006;8.424;2023-01-16T04:32:31;3.03;;;1.17;;
76063;SDS011;64762;52.006;8.424;2023-01-16T04:34:56;8.97;;;2.23;;
76063;SDS011;64762;52.006;8.424;2023-01-16T04:37:21;4.50;;;1.10;;
76063;SDS011;64762;52.006;8.424;2023-01-16T04:39:47;3.67;;;1.13;;
76063;SDS011;64762;52.006;8.424;2023-01-16T04:42:13;5.55;;;1.33;;
76063;SDS011;64762;52.006;8.424;2023-01-16T04:44:38;4.20;;;1.13;;
76063;SDS011;64762;52.006;8.424;2023-01-16T04:47:04;3.17;;;1.07;;
76063;SDS011;64762;52.006;8.424;2023-01-16T04:49:29;5.83;;;1.33;;
76063;SDS011;64762;52.006;8.424;2023-01-16T04:51:54;4.50;;;1.80;;
76063;SDS011;64762;52.006;8.424;2023-01-16T04:54:20;7.73;;;2.13;;
76063;SDS011;64762;52.006;8.424;2023-01-16T04:56:45;6.30;;;1.73;;
76063;SDS011;64762;52.006;8.424;2023-01-16T04:59:11;3.85;;;1.45;;
76063;SDS011;64762;52.006;8.424;2023-01-16T05:01:37;4.07;;;1.20;;
76063;SDS011;64762;52.006;8.424;2023-01-16T05:04:04;3.53;;;0.80;;
76063;SDS011;64762;52.006;8.424;2023-01-16T05:06:30;5.03;;;1.83;;
76063;SDS011;64762;52.006;8.424;2023-01-16T05:08:55;3.03;;;1.08;;
76063;SDS011;64762;52.006;8.424;2023-01-16T05:11:21;4.93;;;1.07;;
76063;SDS011;64762;52.006;8.424;2023-01-16T05:13:46;2.87;;;0.70;;
76063;SDS011;64762;52.006;8.424;2023-01-16T05:16:11;4.40;;;0.93;;
76063;SDS011;64762;52.006;8.424;2023-01-16T05:18:37;2.80;;;0.80;;
76063;SDS011;64762;52.006;8.424;2023-01-16T05:21:02;5.43;;;0.97;;
76063;SDS011;64762;52.006;8.424;2023-01-16T05:23:28;3.67;;;0.90;;
76063;SDS011;64762;52.006;8.424;2023-01-16T05:25:54;1.63;;;0.50;;
76063;SDS011;64762;52.006;8.424;2023-01-16T05:28:19;2.53;;;0.80;;
76063;SDS011;64762;52.006;8.424;2023-01-16T05:30:47;2.53;;;0.77;;
76063;SDS011;64762;52.006;8.424;2023-01-16T05:33:12;1.42;;;0.57;;
76063;SDS011;64762;52.006;8.424;2023-01-16T05:35:38;1.43;;;0.60;;
76063;SDS011;64762;52.006;8.424;2023-01-16T05:38:03;1.53;;;0.50;;
76063;SDS011;64762;52.006;8.424;2023-01-16T05:40:28;5.43;;;0.77;;
76063;SDS011;64762;52.006;8.424;2023-01-16T05:42:54;2.93;;;0.70;;
76063;SDS011;64762;52.006;8.424;2023-01-16T05:45:19;1.57;;;0.57;;
76063;SDS011;64762;52.006;8.424;2023-01-16T05:47:44;1.63;;;0.60;;
76063;SDS011;64762;52.006;8.424;2023-01-16T05:50:10;2.93;;;0.60;;
76063;SDS011;64762;52.006;8.424;2023-01-16T05:52:35;3.25;;;0.60;;
76063;SDS011;64762;52.006;8.424;2023-01-16T05:55:00;1.90;;;0.57;;
76063;SDS011;64762;52.006;8.424;2023-01-16T05:57:26;2.67;;;0.43;;
76063;SDS011;64762;52.006;8.424;2023-01-16T05:59:51;6.57;;;0.90;;
76063;SDS011;64762;52.006;8.424;2023-01-16T06:02:18;0.95;;;0.45;;
76063;SDS011;64762;52.006;8.424;2023-01-16T06:04:44;1.25;;;0.52;;
76063;SDS011;64762;52.006;8.424;2023-01-16T06:07:09;3.40;;;0.87;;
76063;SDS011;64762;52.006;8.424;2023-01-16T06:09:34;1.77;;;0.77;;
76063;SDS011;64762;52.006;8.424;2023-01-16T06:11:59;2.70;;;0.93;;
76063;SDS011;64762;52.006;8.424;2023-01-16T06:14:25;1.53;;;0.63;;
76063;SDS011;64762;52.006;8.424;2023-01-16T06:16:50;1.53;;;0.43;;
76063;SDS011;64762;52.006;8.424;2023-01-16T06:19:15;1.90;;;0.60;;
76063;SDS011;64762;52.006;8.424;2023-01-16T06:21:41;1.43;;;0.57;;
76063;SDS011;64762;52.006;8.424;2023-01-16T06:24:06;1.80;;;0.73;;
76063;SDS011;64762;52.006;8.424;2023-01-16T06:26:31;1.23;;;0.52;;
76063;SDS011;64762;52.006;8.424;2023-01-16T06:28:57;2.53;;;0.67;;
76063;SDS011;64762;52.006;8.424;2023-01-16T06:31:23;2.50;;;0.70;;
76063;SDS011;64762;52.006;8.424;2023-01-16T06:33:48;3.03;;;1.13;;
76063;SDS011;64762;52.006;8.424;2023-01-16T06:36:13;3.40;;;0.87;;
76063;SDS011;64762;52.006;8.424;2023-01-16T06:38:39;2.77;;;1.00;;
76063;SDS011;64762;52.006;8.424;2023-01-16T06:41:04;1.63;;;0.90;;
76063;SDS011;64762;52.006;8.424;2023-01-16T06:43:30;2.05;;;0.70;;
76063;SDS011;64762;52.006;8.424;2023-01-16T06:45:55;3.72;;;1.00;;
76063;SDS011;64762;52.006;8.424;2023-01-16T06:48:21;5.30;;;0.80;;
76063;SDS011;64762;52.006;8.424;2023-01-16T06:50:47;1.38;;;0.60;;
76063;SDS011;64762;52.006;8.424;2023-01-16T06:53:13;2.80;;;1.17;;
76063;SDS011;64762;52.006;8.424;2023-01-16T06:55:39;3.05;;;1.27;;
76063;SDS011;64762;52.006;8.424;2023-01-16T06:58:05;1.65;;;0.70;;
76063;SDS011;64762;52.006;8.424;2023-01-16T07:00:31;3.53;;;0.85;;
76063;SDS011;64762;52.006;8.424;2023-01-16T07:02:56;1.45;;;0.55;;
76063;SDS011;64762;52.006;8.424;2023-01-16T07:05:25;1.30;;;0.57;;
76063;SDS011;64762;52.006;8.424;2023-01-16T07:07:52;1.35;;;0.43;;
76063;SDS011;64762;52.006;8.424;2023-01-16T07:10:17;3.20;;;0.85;;
76063;SDS011;64762;52.006;8.424;2023-01-16T07:12:45;2.97;;;0.80;;
76063;SDS011;64762;52.006;8.424;2023-01-16T07:15:13;1.80;;;0.90;;
76063;SDS011;64762;52.006;8.424;2023-01-16T07:17:57;1.63;;;0.70;;
76063;SDS011;64762;52.006;8.424;2023-01-16T07:20:42;2.25;;;0.80;;
76063;SDS011;64762;52.006;8.424;2023-01-16T07:23:34;2.08;;;0.80;;
76063;SDS011;64762;52.006;8.424;2023-01-16T07:26:02;1.58;;;0.70;;
76063;SDS011;64762;52.006;8.424;2023-01-16T07:28:29;3.17;;;0.90;;
76063;SDS011;64762;52.006;8.424;2023-01-16T07:30:55;4.05;;;1.05;;
76063;SDS011;64762;52.006;8.424;2023-01-16T07:33:22;3.53;;;0.82;;
76063;SDS011;64762;52.006;8.424;2023-01-16T07:35:47;2.20;;;1.05;;
76063;SDS011;64762;52.006;8.424;2023-01-16T07:38:13;2.90;;;0.90;;
76063;SDS011;64762;52.006;8.424;2023-01-16T07:40:38;2.37;;;0.80;;
76063;SDS011;64762;52.006;8.424;2023-01-16T07:43:03;2.33;;;0.90;;
76063;SDS011;64762;52.006;8.424;2023-01-16T07:45:29;3.57;;;1.10;;
76063;SDS011;64762;52.006;8.424;2023-01-16T07:47:54;2.77;;;0.80;;
76063;SDS011;64762;52.006;8.424;2023-01-16T07:50:19;1.15;;;0.52;;
76063;SDS011;64762;52.006;8.424;2023-01-16T07:52:45;2.83;;;0.83;;
76063;SDS011;64762;52.006;8.424;2023-01-16T07:55:11;2.08;;;0.88;;
76063;SDS011;64762;52.006;8.424;2023-01-16T07:57:37;2.78;;;1.00;;
76063;SDS011;64762;52.006;8.424;2023-01-16T08:00:07;3.35;;;1.00;;
76063;SDS011;64762;52.006;8.424;2023-01-16T08:02:35;3.78;;;1.27;;
76063;SDS011;64762;52.006;8.424;2023-01-16T08:05:00;2.77;;;0.93;;
76063;SDS011;64762;52.006;8.424;2023-01-16T08:07:25;2.53;;;0.50;;
76063;SDS011;64762;52.006;8.424;2023-01-16T08:09:50;1.63;;;0.70;;
76063;SDS011;64762;52.006;8.424;2023-01-16T08:12:16;3.27;;;0.70;;
76063;SDS011;64762;52.006;8.424;2023-01-16T08:14:41;2.50;;;1.10;;
76063;SDS011;64762;52.006;8.424;2023-01-16T08:17:07;2.65;;;0.80;;
76063;SDS011;64762;52.006;8.424;2023-01-16T08:19:32;4.30;;;0.93;;
76063;SDS011;64762;52.006;8.424;2023-01-16T08:21:57;3.67;;;1.07;;
76063;SDS011;64762;52.006;8.424;2023-01-16T08:24:23;3.00;;;0.90;;
76063;SDS011;64762;52.006;8.424;2023-01-16T08:26:50;4.00;;;1.20;;
76063;SDS011;64762;52.006;8.424;2023-01-16T08:29:16;2.25;;;0.93;;
76063;SDS011;64762;52.006;8.424;2023-01-16T08:31:41;2.43;;;0.83;;
76063;SDS011;64762;52.006;8.424;2023-01-16T08:34:06;3.00;;;1.13;;
76063;SDS011;64762;52.006;8.424;2023-01-16T08:36:32;2.57;;;0.90;;
76063;SDS011;64762;52.006;8.424;2023-01-16T08:38:57;4.13;;;1.33;;
76063;SDS011;64762;52.006;8.424;2023-01-16T08:41:22;4.83;;;0.97;;
76063;SDS011;64762;52.006;8.424;2023-01-16T08:44:07;2.22;;;0.98;;
76063;SDS011;64762;52.006;8.424;2023-01-16T08:46:53;3.13;;;1.30;;
76063;SDS011;64762;52.006;8.424;2023-01-16T08:49:40;2.70;;;1.25;;
76063;SDS011;64762;52.006;8.424;2023-01-16T08:52:24;6.35;;;1.58;;
76063;SDS011;64762;52.006;8.424;2023-01-16T08:54:52;3.78;;;1.10;;
76063;SDS011;64762;52.006;8.424;2023-01-16T08:57:17;5.47;;;1.45;;
76063;SDS011;64762;52.006;8.424;2023-01-16T08:59:42;3.50;;;0.93;;
76063;SDS011;64762;52.006;8.424;2023-01-16T09:02:08;7.50;;;2.10;;
76063;SDS011;64762;52.006;8.424;2023-01-16T09:04:35;4.75;;;1.10;;
76063;SDS011;64762;52.006;8.424;2023-01-16T09:07:00;4.38;;;1.98;;
76063;SDS011;64762;52.006;8.424;2023-01-16T09:09:26;5.27;;;1.20;;
76063;SDS011;64762;52.006;8.424;2023-01-16T09:11:54;7.10;;;1.63;;
76063;SDS011;64762;52.006;8.424;2023-01-16T09:14:39;4.40;;;1.48;;
76063;SDS011;64762;52.006;8.424;2023-01-16T09:17:04;4.63;;;1.20;;
76063;SDS011;64762;52.006;8.424;2023-01-16T09:19:31;3.80;;;1.40;;
76063;SDS011;64762;52.006;8.424;2023-01-16T09:21:57;2.40;;;1.10;;
76063;SDS011;64762;52.006;8.424;2023-01-16T09:24:22;2.73;;;1.00;;
76063;SDS011;64762;52.006;8.424;2023-01-16T09:26:47;2.87;;;0.77;;
76063;SDS011;64762;52.006;8.424;2023-01-16T09:29:13;3.40;;;1.30;;
76063;SDS011;64762;52.006;8.424;2023-01-16T09:31:38;2.67;;;1.15;;
76063;SDS011;64762;52.006;8.424;2023-01-16T09:34:03;5.90;;;1.47;;
76063;SDS011;64762;52.006;8.424;2023-01-16T09:36:29;4.33;;;1.27;;
76063;SDS011;64762;52.006;8.424;2023-01-16T09:38:54;2.65;;;1.30;;
76063;SDS011;64762;52.006;8.424;2023-01-16T09:41:19;4.75;;;1.33;;
76063;SDS011;64762;52.006;8.424;2023-01-16T09:44:08;3.80;;;1.40;;
76063;SDS011;64762;52.006;8.424;2023-01-16T09:46:38;5.20;;;1.10;;
76063;SDS011;64762;52.006;8.424;2023-01-16T09:49:14;1.92;;;0.88;;
76063;SDS011;64762;52.006;8.424;2023-01-16T09:52:06;5.97;;;1.40;;
76063;SDS011;64762;52.006;8.424;2023-01-16T09:54:57;8.57;;;1.45;;
76063;SDS011;64762;52.006;8.424;2023-01-16T09:57:42;5.93;;;1.55;;
76063;SDS011;64762;52.006;8.424;2023-01-16T10:00:28;5.53;;;1.50;;
76063;SDS011;64762;52.006;8.424;2023-01-16T10:02:55;3.80;;;1.17;;
76063;SDS011;64762;52.006;8.424;2023-01-16T10:05:21;3.50;;;1.03;;
76063;SDS011;64762;52.006;8.424;2023-01-16T10:08:00;4.00;;;1.00;;
76063;SDS011;64762;52.006;8.424;2023-01-16T10:10:43;3.72;;;1.48;;
76063;SDS011;64762;52.006;8.424;2023-01-16T10:13:15;2.28;;;0.90;;
76063;SDS011;64762;52.006;8.424;2023-01-16T10:19:00;8.02;;;1.48;;
76063;SDS011;64762;52.006;8.424;2023-01-16T10:24:24;3.42;;;0.90;;
76063;SDS011;64762;52.006;8.424;2023-01-16T10:26:58;3.83;;;1.23;;
76063;SDS011;64762;52.006;8.424;2023-01-16T10:34:54;5.95;;;1.02;;
76063;SDS011;64762;52.006;8.424;2023-01-16T10:39:54;4.38;;;1.00;;
76063;SDS011;64762;52.006;8.424;2023-01-16T10:42:24;3.58;;;0.77;;
76063;SDS011;64762;52.006;8.424;2023-01-16T10:45:15;5.30;;;1.05;;
76063;SDS011;64762;52.006;8.424;2023-01-16T10:48:26;3.50;;;1.30;;
76063;SDS011;64762;52.006;8.424;2023-01-16T10:51:11;5.10;;;1.00;;
76063;SDS011;64762;52.006;8.424;2023-01-16T10:53:36;3.60;;;1.00;;
76063;SDS011;64762;52.006;8.424;2023-01-16T10:56:02;4.47;;;1.50;;
76063;SDS011;64762;52.006;8.424;2023-01-16T10:58:29;2.88;;;0.90;;
76063;SDS011;64762;52.006;8.424;2023-01-16T11:00:57;4.75;;;1.13;;
76063;SDS011;64762;52.006;8.424;2023-01-16T11:06:07;2.90;;;0.98;;
76063;SDS011;64762;52.006;8.424;2023-01-16T11:08:48;3.17;;;0.90;;
76063;SDS011;64762;52.006;8.424;2023-01-16T11:11:17;2.65;;;1.10;;
76063;SDS011;64762;52.006;8.424;2023-01-16T11:14:03;3.58;;;1.30;;
76063;SDS011;64762;52.006;8.424;2023-01-16T11:16:50;3.42;;;1.23;;
76063;SDS011;64762;52.006;8.424;2023-01-16T11:19:40;3.15;;;1.13;;
76063;SDS011;64762;52.006;8.424;2023-01-16T11:22:19;3.25;;;1.05;;
76063;SDS011;64762;52.006;8.424;2023-01-16T11:24:47;3.78;;;1.25;;
76063;SDS011;64762;52.006;8.424;2023-01-16T11:27:18;4.23;;;1.10;;
76063;SDS011;64762;52.006;8.424;2023-01-16T11:29:45;4.70;;;1.83;;
76063;SDS011;64762;52.006;8.424;2023-01-16T11:32:12;4.60;;;1.55;;
76063;SDS011;64762;52.006;8.424;2023-01-16T11:34:39;3.80;;;1.42;;
76063;SDS011;64762;52.006;8.424;2023-01-16T11:37:09;3.25;;;1.20;;
76063;SDS011;64762;52.006;8.424;2023-01-16T11:39:36;4.22;;;1.20;;
76063;SDS011;64762;52.006;8.424;2023-01-16T11:42:03;2.30;;;0.38;;
76063;SDS011;64762;52.006;8.424;2023-01-16T11:44:53;2.22;;;0.95;;
76063;SDS011;64762;52.006;8.424;2023-01-16T11:47:39;3.00;;;0.90;;
76063;SDS011;64762;52.006;8.424;2023-01-16T11:50:20;2.88;;;1.00;;
76063;SDS011;64762;52.006;8.424;2023-01-16T11:52:52;5.00;;;1.70;;
76063;SDS011;64762;52.006;8.424;2023-01-16T11:55:17;3.03;;;1.10;;
76063;SDS011;64762;52.006;8.424;2023-01-16T11:57:51;3.30;;;1.20;;
76063;SDS011;64762;52.006;8.424;2023-01-16T12:08:39;2.95;;;0.63;;
76063;SDS011;64762;52.006;8.424;2023-01-16T12:11:15;1.95;;;0.45;;
76063;SDS011;64762;52.006;8.424;2023-01-16T12:19:44;3.75;;;1.00;;
76063;SDS011;64762;52.006;8.424;2023-01-16T12:30:56;1.30;;;0.40;;
76063;SDS011;64762;52.006;8.424;2023-01-16T12:34:09;1.25;;;0.65;;
76063;SDS011;64762;52.006;8.424;2023-01-16T12:39:28;1.13;;;0.50;;
76063;SDS011;64762;52.006;8.424;2023-01-16T12:42:08;1.02;;;0.30;;
76063;SDS011;64762;52.006;8.424;2023-01-16T12:45:19;1.38;;;0.50;;
76063;SDS011;64762;52.006;8.424;2023-01-16T12:47:58;1.02;;;0.52;;
76063;SDS011;64762;52.006;8.424;2023-01-16T12:51:31;1.10;;;0.50;;
76063;SDS011;64762;52.006;8.424;2023-01-16T12:56:54;2.50;;;0.70;;
76063;SDS011;64762;52.006;8.424;2023-01-16T13:05:17;0.70;;;0.38;;
76063;SDS011;64762;52.006;8.424;2023-01-16T13:07:46;1.00;;;0.43;;
76063;SDS011;64762;52.006;8.424;2023-01-16T13:10:19;2.63;;;0.82;;
76063;SDS011;64762;52.006;8.424;2023-01-16T13:13:15;0.93;;;0.32;;
76063;SDS011;64762;52.006;8.424;2023-01-16T13:18:46;1.10;;;0.43;;
76063;SDS011;64762;52.006;8.424;2023-01-16T13:21:20;1.58;;;0.65;;
76063;SDS011;64762;52.006;8.424;2023-01-16T13:23:48;1.60;;;0.47;;
76063;SDS011;64762;52.006;8.424;2023-01-16T13:26:18;1.60;;;0.57;;
76063;SDS011;64762;52.006;8.424;2023-01-16T13:28:51;1.17;;;0.50;;
76063;SDS011;64762;52.006;8.424;2023-01-16T13:31:23;1.85;;;0.55;;
76063;SDS011;64762;52.006;8.424;2023-01-16T13:33:52;2.15;;;0.80;;
76063;SDS011;64762;52.006;8.424;2023-01-16T13:36:28;2.47;;;0.80;;
76063;SDS011;64762;52.006;8.424;2023-01-16T13:41:53;0.80;;;0.38;;
76063;SDS011;64762;52.006;8.424;2023-01-16T13:44:28;2.53;;;1.00;;
76063;SDS011;64762;52.006;8.424;2023-01-16T13:47:23;1.25;;;0.35;;
76063;SDS011;64762;52.006;8.424;2023-01-16T13:49:54;0.98;;;0.30;;
76063;SDS011;64762;52.006;8.424;2023-01-16T13:52:25;0.30;;;0.20;;
76063;SDS011;64762;52.006;8.424;2023-01-16T13:54:56;1.02;;;0.40;;
76063;SDS011;64762;52.006;8.424;2023-01-16T13:57:23;1.17;;;0.40;;
76063;SDS011;64762;52.006;8.424;2023-01-16T13:59:50;1.08;;;0.40;;
76063;SDS011;64762;52.006;8.424;2023-01-16T14:10:46;0.75;;;0.35;;
76063;SDS011;64762;52.006;8.424;2023-01-16T14:15:56;2.63;;;0.60;;
76063;SDS011;64762;52.006;8.424;2023-01-16T14:21:17;1.33;;;0.55;;
76063;SDS011;64762;52.006;8.424;2023-01-16T14:23:46;1.23;;;0.43;;
76063;SDS011;64762;52.006;8.424;2023-01-16T14:31:53;0.75;;;0.30;;
76063;SDS011;64762;52.006;8.424;2023-01-16T14:34:23;1.60;;;0.60;;
76063;SDS011;64762;52.006;8.424;2023-01-16T14:36:51;1.92;;;0.50;;
76063;SDS011;64762;52.006;8.424;2023-01-16T14:39:37;2.00;;;1.30;;
76063;SDS011;64762;52.006;8.424;2023-01-16T14:42:06;1.23;;;0.50;;
76063;SDS011;64762;52.006;8.424;2023-01-16T14:50:53;1.30;;;0.50;;
76063;SDS011;64762;52.006;8.424;2023-01-16T14:57:13;0.60;;;0.28;;
76063;SDS011;64762;52.006;8.424;2023-01-16T14:59:43;1.05;;;0.50;;
76063;SDS011;64762;52.006;8.424;2023-01-16T15:02:23;1.52;;;0.70;;
76063;SDS011;64762;52.006;8.424;2023-01-16T15:10:16;1.42;;;0.60;;
76063;SDS011;64762;52.006;8.424;2023-01-16T15:12:44;1.67;;;0.60;;
76063;SDS011;64762;52.006;8.424;2023-01-16T15:17:51;1.80;;;0.80;;
76063;SDS011;64762;52.006;8.424;2023-01-16T15:20:36;1.63;;;0.70;;
76063;SDS011;64762;52.006;8.424;2023-01-16T15:28:38;5.90;;;1.00;;
76063;SDS011;64762;52.006;8.424;2023-01-16T15:31:30;1.38;;;0.70;;
76063;SDS011;64762;52.006;8.424;2023-01-16T15:34:26;1.10;;;0.50;;
76063;SDS011;64762;52.006;8.424;2023-01-16T15:36:51;1.65;;;0.70;;
76063;SDS011;64762;52.006;8.424;2023-01-16T15:39:19;2.33;;;0.60;;
76063;SDS011;64762;52.006;8.424;2023-01-16T15:41:59;2.03;;;0.70;;
76063;SDS011;64762;52.006;8.424;2023-01-16T15:44:46;1.45;;;0.70;;
76063;SDS011;64762;52.006;8.424;2023-01-16T15:52:55;1.95;;;0.80;;
76063;SDS011;64762;52.006;8.424;2023-01-16T15:55:24;1.95;;;0.80;;
76063;SDS011;64762;52.006;8.424;2023-01-16T15:57:54;2.60;;;1.05;;
76063;SDS011;64762;52.006;8.424;2023-01-16T16:00:29;2.83;;;0.85;;
76063;SDS011;64762;52.006;8.424;2023-01-16T16:02:59;1.45;;;0.70;;
76063;SDS011;64762;52.006;8.424;2023-01-16T16:05:27;2.28;;;0.80;;
76063;SDS011;64762;52.006;8.424;2023-01-16T16:07:53;2.70;;;1.10;;
76063;SDS011;64762;52.006;8.424;2023-01-16T16:10:19;3.45;;;1.00;;
76063;SDS011;64762;52.006;8.424;2023-01-16T16:13:04;2.75;;;0.80;;
76063;SDS011;64762;52.006;8.424;2023-01-16T16:15:30;2.38;;;1.02;;
76063;SDS011;64762;52.006;8.424;2023-01-16T16:18:15;1.90;;;0.80;;
76063;SDS011;64762;52.006;8.424;2023-01-16T16:20:42;2.45;;;1.10;;
76063;SDS011;64762;52.006;8.424;2023-01-16T16:25:51;2.05;;;0.80;;
76063;SDS011;64762;52.006;8.424;2023-01-16T16:33:26;2.00;;;1.10;;
76063;SDS011;64762;52.006;8.424;2023-01-16T16:35:52;2.13;;;0.95;;
76063;SDS011;64762;52.006;8.424;2023-01-16T16:38:23;1.92;;;0.90;;
76063;SDS011;64762;52.006;8.424;2023-01-16T16:41:01;2.10;;;0.85;;
76063;SDS011;64762;52.006;8.424;2023-01-16T16:44:20;2.17;;;0.93;;
76063;SDS011;64762;52.006;8.424;2023-01-16T16:46:50;2.22;;;1.00;;
76063;SDS011;64762;52.006;8.424;2023-01-16T16:51:40;2.33;;;1.00;;
76063;SDS011;64762;52.006;8.424;2023-01-16T16:54:08;2.80;;;0.90;;
76063;SDS011;64762;52.006;8.424;2023-01-16T16:56:36;1.95;;;0.75;;
76063;SDS011;64762;52.006;8.424;2023-01-16T16:59:02;2.30;;;0.75;;
76063;SDS011;64762;52.006;8.424;2023-01-16T17:01:28;2.50;;;0.90;;
76063;SDS011;64762;52.006;8.424;2023-01-16T17:03:57;2.10;;;0.80;;
76063;SDS011;64762;52.006;8.424;2023-01-16T17:06:30;2.58;;;1.08;;
76063;SDS011;64762;52.006;8.424;2023-01-16T17:08:57;2.22;;;0.90;;
76063;SDS011;64762;52.006;8.424;2023-01-16T17:11:22;2.30;;;0.90;;
76063;SDS011;64762;52.006;8.424;2023-01-16T17:13:48;2.40;;;0.85;;
76063;SDS011;64762;52.006;8.424;2023-01-16T17:16:17;2.13;;;1.00;;
76063;SDS011;64762;52.006;8.424;2023-01-16T17:18:47;2.67;;;1.30;;
76063;SDS011;64762;52.006;8.424;2023-01-16T17:21:13;2.33;;;1.00;;
76063;SDS011;64762;52.006;8.424;2023-01-16T17:23:40;2.60;;;1.10;;
76063;SDS011;64762;52.006;8.424;2023-01-16T17:26:06;3.05;;;0.90;;
76063;SDS011;64762;52.006;8.424;2023-01-16T17:28:33;2.72;;;1.20;;
76063;SDS011;64762;52.006;8.424;2023-01-16T17:30:58;2.70;;;0.83;;
76063;SDS011;64762;52.006;8.424;2023-01-16T17:33:24;2.30;;;1.10;;
76063;SDS011;64762;52.006;8.424;2023-01-16T17:35:52;4.10;;;1.13;;
76063;SDS011;64762;52.006;8.424;2023-01-16T17:38:39;3.92;;;1.15;;
76063;SDS011;64762;52.006;8.424;2023-01-16T17:41:05;2.53;;;0.88;;
76063;SDS011;64762;52.006;8.424;2023-01-16T17:43:50;3.95;;;0.90;;
76063;SDS011;64762;52.006;8.424;2023-01-16T17:46:34;3.00;;;1.05;;